Terminal Aerodrome Forecast
Issued by NWS

Home | Current Version | Previous Version | Text Only | Print | Product List | Glossary On
Versions: 1 2 3 4 5 6 7 8 9 10 11 12 13 14 15 16 17 18 19 20 21 22 23 24 25 26 27 28 29 30 31 32 33 34
462
FTUS46 KOTX 211730
TAFCOE
TAF
KCOE 211730Z 2118/2218 17006KT P6SM VCSH OVC040
     FM211900 15005KT P6SM -RA OVC030
     FM212200 16012G20KT P6SM -RA OVC015
     FM220600 21014KT P6SM -RA SCT005 OVC010
     FM220800 21020G30KT P6SM OVC015
     FM221600 22025G35KT P6SM -SHRA SCT025 OVC040=

USA.gov is the U.S. government's official web portal to all federal, state and local government web resources and services.